sensor_id;sensor_type;location;lat;lon;timestamp;P1;durP1;ratioP1;P2;durP2;ratioP2
56477;SDS011;42382;53.210;5.772;2022-08-21T00:01:14;8.77;;;4.10;;
56477;SDS011;42382;53.210;5.772;2022-08-21T00:03:43;5.63;;;2.60;;
56477;SDS011;42382;53.210;5.772;2022-08-21T00:06:08;11.27;;;3.88;;
56477;SDS011;42382;53.210;5.772;2022-08-21T00:08:34;8.25;;;3.08;;
56477;SDS011;42382;53.210;5.772;2022-08-21T00:11:00;10.20;;;3.22;;
56477;SDS011;42382;53.210;5.772;2022-08-21T00:13:26;10.35;;;3.17;;
56477;SDS011;42382;53.210;5.772;2022-08-21T00:15:51;8.32;;;3.55;;
56477;SDS011;42382;53.210;5.772;2022-08-21T00:18:17;9.82;;;2.63;;
56477;SDS011;42382;53.210;5.772;2022-08-21T00:20:43;8.23;;;3.22;;
56477;SDS011;42382;53.210;5.772;2022-08-21T00:23:10;10.52;;;2.92;;
56477;SDS011;42382;53.210;5.772;2022-08-21T00:25:37;8.77;;;3.28;;
56477;SDS011;42382;53.210;5.772;2022-08-21T00:28:03;10.05;;;3.60;;
56477;SDS011;42382;53.210;5.772;2022-08-21T00:30:30;8.77;;;3.70;;
56477;SDS011;42382;53.210;5.772;2022-08-21T00:32:56;8.07;;;3.13;;
56477;SDS011;42382;53.210;5.772;2022-08-21T00:35:25;7.43;;;3.17;;
56477;SDS011;42382;53.210;5.772;2022-08-21T00:37:52;11.50;;;3.67;;
56477;SDS011;42382;53.210;5.772;2022-08-21T00:40:20;6.78;;;3.17;;
56477;SDS011;42382;53.210;5.772;2022-08-21T00:42:48;5.63;;;2.28;;
56477;SDS011;42382;53.210;5.772;2022-08-21T00:45:15;6.07;;;3.05;;
56477;SDS011;42382;53.210;5.772;2022-08-21T00:47:40;7.18;;;2.65;;
56477;SDS011;42382;53.210;5.772;2022-08-21T00:50:06;8.02;;;4.10;;
56477;SDS011;42382;53.210;5.772;2022-08-21T00:52:33;9.80;;;3.70;;
56477;SDS011;42382;53.210;5.772;2022-08-21T00:55:02;7.38;;;3.65;;
56477;SDS011;42382;53.210;5.772;2022-08-21T00:57:31;7.88;;;4.57;;
56477;SDS011;42382;53.210;5.772;2022-08-21T01:00:01;9.85;;;3.45;;
56477;SDS011;42382;53.210;5.772;2022-08-21T01:02:30;7.47;;;3.25;;
56477;SDS011;42382;53.210;5.772;2022-08-21T01:04:55;10.70;;;3.60;;
56477;SDS011;42382;53.210;5.772;2022-08-21T01:07:22;7.13;;;3.33;;
56477;SDS011;42382;53.210;5.772;2022-08-21T01:09:48;6.50;;;3.35;;
56477;SDS011;42382;53.210;5.772;2022-08-21T01:12:13;8.95;;;3.53;;
56477;SDS011;42382;53.210;5.772;2022-08-21T01:14:40;7.20;;;2.85;;
56477;SDS011;42382;53.210;5.772;2022-08-21T01:17:08;7.25;;;3.25;;
56477;SDS011;42382;53.210;5.772;2022-08-21T01:19:36;8.60;;;3.38;;
56477;SDS011;42382;53.210;5.772;2022-08-21T01:22:02;9.85;;;3.55;;
56477;SDS011;42382;53.210;5.772;2022-08-21T01:24:28;9.27;;;3.90;;
56477;SDS011;42382;53.210;5.772;2022-08-21T01:26:54;9.90;;;3.17;;
56477;SDS011;42382;53.210;5.772;2022-08-21T01:29:23;5.85;;;3.00;;
56477;SDS011;42382;53.210;5.772;2022-08-21T01:31:55;7.80;;;3.47;;
56477;SDS011;42382;53.210;5.772;2022-08-21T01:34:22;9.27;;;3.53;;
56477;SDS011;42382;53.210;5.772;2022-08-21T01:36:48;6.85;;;2.90;;
56477;SDS011;42382;53.210;5.772;2022-08-21T01:39:14;5.80;;;3.42;;
56477;SDS011;42382;53.210;5.772;2022-08-21T01:41:40;7.10;;;3.45;;
56477;SDS011;42382;53.210;5.772;2022-08-21T01:44:05;8.48;;;3.80;;
56477;SDS011;42382;53.210;5.772;2022-08-21T01:46:31;11.43;;;4.10;;
56477;SDS011;42382;53.210;5.772;2022-08-21T01:48:57;11.52;;;4.40;;
56477;SDS011;42382;53.210;5.772;2022-08-21T01:51:23;9.77;;;4.35;;
56477;SDS011;42382;53.210;5.772;2022-08-21T01:53:49;11.48;;;4.18;;
56477;SDS011;42382;53.210;5.772;2022-08-21T01:56:15;12.45;;;4.30;;
56477;SDS011;42382;53.210;5.772;2022-08-21T01:58:42;9.05;;;3.63;;
56477;SDS011;42382;53.210;5.772;2022-08-21T02:01:10;11.50;;;3.97;;
56477;SDS011;42382;53.210;5.772;2022-08-21T02:03:36;9.85;;;4.57;;
56477;SDS011;42382;53.210;5.772;2022-08-21T02:06:03;8.20;;;3.75;;
56477;SDS011;42382;53.210;5.772;2022-08-21T02:08:30;6.95;;;3.55;;
56477;SDS011;42382;53.210;5.772;2022-08-21T02:10:55;7.85;;;4.20;;
56477;SDS011;42382;53.210;5.772;2022-08-21T02:13:21;8.65;;;3.55;;
56477;SDS011;42382;53.210;5.772;2022-08-21T02:15:46;10.38;;;4.35;;
56477;SDS011;42382;53.210;5.772;2022-08-21T02:18:12;13.32;;;3.80;;
56477;SDS011;42382;53.210;5.772;2022-08-21T02:20:39;8.88;;;3.90;;
56477;SDS011;42382;53.210;5.772;2022-08-21T02:23:07;8.90;;;4.90;;
56477;SDS011;42382;53.210;5.772;2022-08-21T02:25:34;5.60;;;3.53;;
56477;SDS011;42382;53.210;5.772;2022-08-21T02:28:02;11.80;;;4.18;;
56477;SDS011;42382;53.210;5.772;2022-08-21T02:30:32;7.40;;;3.60;;
56477;SDS011;42382;53.210;5.772;2022-08-21T02:33:00;8.23;;;3.78;;
56477;SDS011;42382;53.210;5.772;2022-08-21T02:35:26;6.68;;;3.85;;
56477;SDS011;42382;53.210;5.772;2022-08-21T02:37:54;8.55;;;4.18;;
56477;SDS011;42382;53.210;5.772;2022-08-21T02:40:26;10.35;;;4.47;;
56477;SDS011;42382;53.210;5.772;2022-08-21T02:42:54;9.77;;;4.78;;
56477;SDS011;42382;53.210;5.772;2022-08-21T02:45:19;8.80;;;3.95;;
56477;SDS011;42382;53.210;5.772;2022-08-21T02:47:49;8.07;;;3.55;;
56477;SDS011;42382;53.210;5.772;2022-08-21T02:50:21;9.55;;;4.20;;
56477;SDS011;42382;53.210;5.772;2022-08-21T02:52:58;8.30;;;3.58;;
56477;SDS011;42382;53.210;5.772;2022-08-21T02:55:24;8.50;;;4.05;;
56477;SDS011;42382;53.210;5.772;2022-08-21T02:57:52;10.00;;;4.40;;
56477;SDS011;42382;53.210;5.772;2022-08-21T03:00:19;9.50;;;4.18;;
56477;SDS011;42382;53.210;5.772;2022-08-21T03:02:45;11.88;;;4.47;;
56477;SDS011;42382;53.210;5.772;2022-08-21T03:05:12;11.93;;;5.68;;
56477;SDS011;42382;53.210;5.772;2022-08-21T03:07:40;9.50;;;4.43;;
56477;SDS011;42382;53.210;5.772;2022-08-21T03:10:06;10.93;;;4.95;;
56477;SDS011;42382;53.210;5.772;2022-08-21T03:12:32;8.95;;;4.43;;
56477;SDS011;42382;53.210;5.772;2022-08-21T03:15:00;12.82;;;5.10;;
56477;SDS011;42382;53.210;5.772;2022-08-21T03:17:26;8.18;;;4.50;;
56477;SDS011;42382;53.210;5.772;2022-08-21T03:19:52;8.30;;;4.72;;
56477;SDS011;42382;53.210;5.772;2022-08-21T03:22:18;10.73;;;4.82;;
56477;SDS011;42382;53.210;5.772;2022-08-21T03:24:43;13.40;;;5.20;;
56477;SDS011;42382;53.210;5.772;2022-08-21T03:27:10;12.02;;;4.72;;
56477;SDS011;42382;53.210;5.772;2022-08-21T03:29:37;10.68;;;5.18;;
56477;SDS011;42382;53.210;5.772;2022-08-21T03:32:03;10.05;;;4.88;;
56477;SDS011;42382;53.210;5.772;2022-08-21T03:34:29;6.40;;;4.15;;
56477;SDS011;42382;53.210;5.772;2022-08-21T03:36:55;9.93;;;4.78;;
56477;SDS011;42382;53.210;5.772;2022-08-21T03:39:21;9.73;;;4.53;;
56477;SDS011;42382;53.210;5.772;2022-08-21T03:41:46;9.98;;;4.15;;
56477;SDS011;42382;53.210;5.772;2022-08-21T03:44:12;12.27;;;5.25;;
56477;SDS011;42382;53.210;5.772;2022-08-21T03:46:38;15.40;;;5.03;;
56477;SDS011;42382;53.210;5.772;2022-08-21T03:49:05;11.15;;;5.13;;
56477;SDS011;42382;53.210;5.772;2022-08-21T03:51:31;14.32;;;4.82;;
56477;SDS011;42382;53.210;5.772;2022-08-21T03:53:58;11.50;;;5.80;;
56477;SDS011;42382;53.210;5.772;2022-08-21T03:56:24;9.32;;;5.07;;
56477;SDS011;42382;53.210;5.772;2022-08-21T03:58:49;9.68;;;5.30;;
56477;SDS011;42382;53.210;5.772;2022-08-21T04:01:15;12.02;;;4.72;;
56477;SDS011;42382;53.210;5.772;2022-08-21T04:03:41;9.50;;;4.55;;
56477;SDS011;42382;53.210;5.772;2022-08-21T04:06:07;8.63;;;4.50;;
56477;SDS011;42382;53.210;5.772;2022-08-21T04:08:32;10.50;;;5.20;;
56477;SDS011;42382;53.210;5.772;2022-08-21T04:11:00;10.38;;;4.82;;
56477;SDS011;42382;53.210;5.772;2022-08-21T04:13:26;6.88;;;4.47;;
56477;SDS011;42382;53.210;5.772;2022-08-21T04:15:53;8.68;;;4.72;;
56477;SDS011;42382;53.210;5.772;2022-08-21T04:18:19;13.98;;;5.78;;
56477;SDS011;42382;53.210;5.772;2022-08-21T04:20:46;13.20;;;5.78;;
56477;SDS011;42382;53.210;5.772;2022-08-21T04:23:14;11.00;;;4.82;;
56477;SDS011;42382;53.210;5.772;2022-08-21T04:25:40;17.08;;;5.40;;
56477;SDS011;42382;53.210;5.772;2022-08-21T04:28:05;12.77;;;5.28;;
56477;SDS011;42382;53.210;5.772;2022-08-21T04:30:31;8.23;;;4.30;;
56477;SDS011;42382;53.210;5.772;2022-08-21T04:32:57;11.18;;;5.18;;
56477;SDS011;42382;53.210;5.772;2022-08-21T04:35:23;8.27;;;4.43;;
56477;SDS011;42382;53.210;5.772;2022-08-21T04:37:50;9.32;;;4.90;;
56477;SDS011;42382;53.210;5.772;2022-08-21T04:40:17;11.73;;;5.28;;
56477;SDS011;42382;53.210;5.772;2022-08-21T04:42:45;9.38;;;4.70;;
56477;SDS011;42382;53.210;5.772;2022-08-21T04:45:15;10.93;;;5.28;;
56477;SDS011;42382;53.210;5.772;2022-08-21T04:47:49;8.65;;;4.95;;
56477;SDS011;42382;53.210;5.772;2022-08-21T04:50:16;9.93;;;4.55;;
56477;SDS011;42382;53.210;5.772;2022-08-21T04:52:42;13.30;;;5.35;;
56477;SDS011;42382;53.210;5.772;2022-08-21T04:55:09;12.45;;;5.30;;
56477;SDS011;42382;53.210;5.772;2022-08-21T04:57:34;13.70;;;5.30;;
56477;SDS011;42382;53.210;5.772;2022-08-21T05:00:00;9.23;;;4.78;;
56477;SDS011;42382;53.210;5.772;2022-08-21T05:02:28;10.85;;;5.30;;
56477;SDS011;42382;53.210;5.772;2022-08-21T05:04:54;12.02;;;4.97;;
56477;SDS011;42382;53.210;5.772;2022-08-21T05:07:21;7.78;;;4.25;;
56477;SDS011;42382;53.210;5.772;2022-08-21T05:09:51;13.40;;;5.10;;
56477;SDS011;42382;53.210;5.772;2022-08-21T05:12:17;12.73;;;4.93;;
56477;SDS011;42382;53.210;5.772;2022-08-21T05:14:43;15.27;;;6.38;;
56477;SDS011;42382;53.210;5.772;2022-08-21T05:17:09;12.80;;;5.50;;
56477;SDS011;42382;53.210;5.772;2022-08-21T05:19:35;10.20;;;5.47;;
56477;SDS011;42382;53.210;5.772;2022-08-21T05:22:04;14.90;;;5.68;;
56477;SDS011;42382;53.210;5.772;2022-08-21T05:24:30;11.98;;;5.50;;
56477;SDS011;42382;53.210;5.772;2022-08-21T05:26:56;14.30;;;5.97;;
56477;SDS011;42382;53.210;5.772;2022-08-21T05:29:21;15.60;;;5.32;;
56477;SDS011;42382;53.210;5.772;2022-08-21T05:31:47;11.48;;;5.40;;
56477;SDS011;42382;53.210;5.772;2022-08-21T05:34:14;14.15;;;4.90;;
56477;SDS011;42382;53.210;5.772;2022-08-21T05:36:43;10.32;;;5.18;;
56477;SDS011;42382;53.210;5.772;2022-08-21T05:39:09;8.93;;;4.57;;
56477;SDS011;42382;53.210;5.772;2022-08-21T05:41:34;13.85;;;5.57;;
56477;SDS011;42382;53.210;5.772;2022-08-21T05:44:00;10.40;;;4.93;;
56477;SDS011;42382;53.210;5.772;2022-08-21T05:46:26;11.45;;;4.95;;
56477;SDS011;42382;53.210;5.772;2022-08-21T05:48:51;10.85;;;5.35;;
56477;SDS011;42382;53.210;5.772;2022-08-21T05:51:17;13.15;;;4.93;;
56477;SDS011;42382;53.210;5.772;2022-08-21T05:53:43;14.27;;;4.82;;
56477;SDS011;42382;53.210;5.772;2022-08-21T05:56:09;10.65;;;5.13;;
56477;SDS011;42382;53.210;5.772;2022-08-21T05:58:35;9.98;;;4.93;;
56477;SDS011;42382;53.210;5.772;2022-08-21T06:01:02;11.77;;;5.03;;
56477;SDS011;42382;53.210;5.772;2022-08-21T06:03:29;11.73;;;4.70;;
56477;SDS011;42382;53.210;5.772;2022-08-21T06:05:58;13.18;;;5.05;;
56477;SDS011;42382;53.210;5.772;2022-08-21T06:08:25;10.10;;;4.53;;
56477;SDS011;42382;53.210;5.772;2022-08-21T06:10:51;7.68;;;4.47;;
56477;SDS011;42382;53.210;5.772;2022-08-21T06:13:18;8.68;;;4.15;;
56477;SDS011;42382;53.210;5.772;2022-08-21T06:15:45;10.20;;;4.05;;
56477;SDS011;42382;53.210;5.772;2022-08-21T06:18:11;12.90;;;4.95;;
56477;SDS011;42382;53.210;5.772;2022-08-21T06:20:37;12.05;;;4.90;;
56477;SDS011;42382;53.210;5.772;2022-08-21T06:23:03;13.98;;;4.97;;
56477;SDS011;42382;53.210;5.772;2022-08-21T06:25:29;12.65;;;4.72;;
56477;SDS011;42382;53.210;5.772;2022-08-21T06:28:06;14.85;;;4.57;;
56477;SDS011;42382;53.210;5.772;2022-08-21T06:30:33;13.35;;;4.70;;
56477;SDS011;42382;53.210;5.772;2022-08-21T06:33:01;12.23;;;4.93;;
56477;SDS011;42382;53.210;5.772;2022-08-21T06:35:28;13.90;;;4.22;;
56477;SDS011;42382;53.210;5.772;2022-08-21T06:37:54;14.85;;;4.10;;
56477;SDS011;42382;53.210;5.772;2022-08-21T06:40:20;8.57;;;3.83;;
56477;SDS011;42382;53.210;5.772;2022-08-21T06:42:46;15.20;;;4.53;;
56477;SDS011;42382;53.210;5.772;2022-08-21T06:45:12;11.35;;;4.85;;
56477;SDS011;42382;53.210;5.772;2022-08-21T06:47:38;10.80;;;4.22;;
56477;SDS011;42382;53.210;5.772;2022-08-21T06:50:04;11.32;;;3.97;;
56477;SDS011;42382;53.210;5.772;2022-08-21T06:52:32;12.52;;;3.28;;
56477;SDS011;42382;53.210;5.772;2022-08-21T06:54:59;12.75;;;2.92;;
56477;SDS011;42382;53.210;5.772;2022-08-21T06:57:25;11.65;;;2.60;;
56477;SDS011;42382;53.210;5.772;2022-08-21T06:59:50;15.23;;;4.43;;
56477;SDS011;42382;53.210;5.772;2022-08-21T07:02:16;12.18;;;3.03;;
56477;SDS011;42382;53.210;5.772;2022-08-21T07:04:42;10.65;;;2.40;;
56477;SDS011;42382;53.210;5.772;2022-08-21T07:07:08;8.63;;;2.03;;
56477;SDS011;42382;53.210;5.772;2022-08-21T07:09:34;10.05;;;2.10;;
56477;SDS011;42382;53.210;5.772;2022-08-21T07:11:59;13.48;;;2.22;;
56477;SDS011;42382;53.210;5.772;2022-08-21T07:14:25;13.57;;;2.50;;
56477;SDS011;42382;53.210;5.772;2022-08-21T07:16:51;17.30;;;3.28;;
56477;SDS011;42382;53.210;5.772;2022-08-21T07:19:17;13.27;;;2.17;;
56477;SDS011;42382;53.210;5.772;2022-08-21T07:21:43;14.13;;;3.10;;
56477;SDS011;42382;53.210;5.772;2022-08-21T07:24:09;13.45;;;2.58;;
56477;SDS011;42382;53.210;5.772;2022-08-21T07:26:35;11.20;;;2.55;;
56477;SDS011;42382;53.210;5.772;2022-08-21T07:29:03;8.02;;;2.30;;
56477;SDS011;42382;53.210;5.772;2022-08-21T07:31:29;14.98;;;2.58;;
56477;SDS011;42382;53.210;5.772;2022-08-21T07:33:55;11.43;;;2.13;;
56477;SDS011;42382;53.210;5.772;2022-08-21T07:36:21;11.07;;;1.75;;
56477;SDS011;42382;53.210;5.772;2022-08-21T07:38:47;9.63;;;2.20;;
56477;SDS011;42382;53.210;5.772;2022-08-21T07:41:18;13.23;;;3.35;;
56477;SDS011;42382;53.210;5.772;2022-08-21T07:43:48;13.45;;;2.45;;
56477;SDS011;42382;53.210;5.772;2022-08-21T07:46:14;12.25;;;2.45;;
56477;SDS011;42382;53.210;5.772;2022-08-21T07:48:40;12.35;;;2.78;;
56477;SDS011;42382;53.210;5.772;2022-08-21T07:51:07;13.27;;;2.70;;
56477;SDS011;42382;53.210;5.772;2022-08-21T07:53:35;13.93;;;2.90;;
56477;SDS011;42382;53.210;5.772;2022-08-21T07:56:02;9.50;;;2.25;;
56477;SDS011;42382;53.210;5.772;2022-08-21T07:58:29;11.25;;;1.98;;
56477;SDS011;42382;53.210;5.772;2022-08-21T08:00:55;10.10;;;2.00;;
56477;SDS011;42382;53.210;5.772;2022-08-21T08:03:21;8.15;;;1.73;;
56477;SDS011;42382;53.210;5.772;2022-08-21T08:05:46;11.18;;;2.05;;
56477;SDS011;42382;53.210;5.772;2022-08-21T08:08:12;11.10;;;2.03;;
56477;SDS011;42382;53.210;5.772;2022-08-21T08:10:37;6.15;;;1.27;;
56477;SDS011;42382;53.210;5.772;2022-08-21T08:13:04;9.02;;;1.60;;
56477;SDS011;42382;53.210;5.772;2022-08-21T08:15:30;7.40;;;1.70;;
56477;SDS011;42382;53.210;5.772;2022-08-21T08:17:55;9.30;;;1.90;;
56477;SDS011;42382;53.210;5.772;2022-08-21T08:20:22;7.82;;;1.20;;
56477;SDS011;42382;53.210;5.772;2022-08-21T08:22:50;5.30;;;1.50;;
56477;SDS011;42382;53.210;5.772;2022-08-21T08:25:16;7.22;;;1.45;;
56477;SDS011;42382;53.210;5.772;2022-08-21T08:27:43;12.43;;;2.05;;
56477;SDS011;42382;53.210;5.772;2022-08-21T08:30:10;9.55;;;1.98;;
56477;SDS011;42382;53.210;5.772;2022-08-21T08:32:37;4.90;;;1.30;;
56477;SDS011;42382;53.210;5.772;2022-08-21T08:35:04;6.07;;;1.77;;
56477;SDS011;42382;53.210;5.772;2022-08-21T08:37:30;7.78;;;1.33;;
56477;SDS011;42382;53.210;5.772;2022-08-21T08:39:57;9.85;;;2.15;;
56477;SDS011;42382;53.210;5.772;2022-08-21T08:44:56;8.57;;;1.00;;
56477;SDS011;42382;53.210;5.772;2022-08-21T08:47:35;8.07;;;1.73;;
56477;SDS011;42382;53.210;5.772;2022-08-21T08:50:07;7.88;;;1.27;;
56477;SDS011;42382;53.210;5.772;2022-08-21T08:52:40;12.30;;;1.67;;
56477;SDS011;42382;53.210;5.772;2022-08-21T08:55:14;9.02;;;1.38;;
56477;SDS011;42382;53.210;5.772;2022-08-21T08:57:44;9.70;;;1.70;;
56477;SDS011;42382;53.210;5.772;2022-08-21T09:00:13;8.68;;;1.23;;
56477;SDS011;42382;53.210;5.772;2022-08-21T09:02:41;8.35;;;1.20;;
56477;SDS011;42382;53.210;5.772;2022-08-21T09:11:02;7.10;;;1.40;;
56477;SDS011;42382;53.210;5.772;2022-08-21T09:16:24;6.78;;;0.80;;
56477;SDS011;42382;53.210;5.772;2022-08-21T09:19:05;6.80;;;1.05;;
56477;SDS011;42382;53.210;5.772;2022-08-21T09:22:01;7.80;;;1.45;;
56477;SDS011;42382;53.210;5.772;2022-08-21T09:24:33;5.55;;;0.85;;
56477;SDS011;42382;53.210;5.772;2022-08-21T09:27:11;6.00;;;1.00;;
56477;SDS011;42382;53.210;5.772;2022-08-21T09:29:40;5.80;;;0.93;;
56477;SDS011;42382;53.210;5.772;2022-08-21T09:32:18;7.85;;;1.25;;
56477;SDS011;42382;53.210;5.772;2022-08-21T09:37:20;4.97;;;0.80;;
56477;SDS011;42382;53.210;5.772;2022-08-21T09:39:45;2.40;;;0.68;;
56477;SDS011;42382;53.210;5.772;2022-08-21T09:42:11;7.75;;;0.98;;
56477;SDS011;42382;53.210;5.772;2022-08-21T09:45:04;6.60;;;0.90;;
56477;SDS011;42382;53.210;5.772;2022-08-21T09:47:42;5.75;;;1.25;;
56477;SDS011;42382;53.210;5.772;2022-08-21T09:50:12;5.43;;;1.20;;
56477;SDS011;42382;53.210;5.772;2022-08-21T09:52:44;7.28;;;1.23;;
56477;SDS011;42382;53.210;5.772;2022-08-21T09:58:12;6.10;;;0.63;;
56477;SDS011;42382;53.210;5.772;2022-08-21T10:00:38;4.43;;;0.80;;
56477;SDS011;42382;53.210;5.772;2022-08-21T10:03:14;4.13;;;0.68;;
56477;SDS011;42382;53.210;5.772;2022-08-21T10:08:17;3.55;;;0.50;;
56477;SDS011;42382;53.210;5.772;2022-08-21T10:10:45;4.18;;;0.57;;
56477;SDS011;42382;53.210;5.772;2022-08-21T10:13:21;3.00;;;0.40;;
56477;SDS011;42382;53.210;5.772;2022-08-21T10:16:13;3.50;;;0.40;;
56477;SDS011;42382;53.210;5.772;2022-08-21T10:18:41;3.70;;;0.90;;
56477;SDS011;42382;53.210;5.772;2022-08-21T10:21:23;5.65;;;0.80;;
56477;SDS011;42382;53.210;5.772;2022-08-21T10:24:35;4.30;;;0.45;;
56477;SDS011;42382;53.210;5.772;2022-08-21T10:27:30;4.50;;;0.50;;
56477;SDS011;42382;53.210;5.772;2022-08-21T10:30:09;3.50;;;0.60;;
56477;SDS011;42382;53.210;5.772;2022-08-21T10:32:52;2.90;;;0.20;;
56477;SDS011;42382;53.210;5.772;2022-08-21T10:35:47;3.72;;;0.52;;
56477;SDS011;42382;53.210;5.772;2022-08-21T10:46:37;6.95;;;0.40;;
56477;SDS011;42382;53.210;5.772;2022-08-21T10:55:06;2.25;;;0.40;;
56477;SDS011;42382;53.210;5.772;2022-08-21T11:00:55;2.28;;;0.60;;
56477;SDS011;42382;53.210;5.772;2022-08-21T11:03:33;4.10;;;0.38;;
56477;SDS011;42382;53.210;5.772;2022-08-21T11:08:41;4.10;;;0.45;;
56477;SDS011;42382;53.210;5.772;2022-08-21T11:13:45;4.75;;;0.50;;
56477;SDS011;42382;53.210;5.772;2022-08-21T11:16:26;2.00;;;0.70;;
56477;SDS011;42382;53.210;5.772;2022-08-21T11:18:57;2.45;;;0.32;;
56477;SDS011;42382;53.210;5.772;2022-08-21T11:21:53;3.85;;;0.57;;
56477;SDS011;42382;53.210;5.772;2022-08-21T11:29:37;3.95;;;0.43;;
56477;SDS011;42382;53.210;5.772;2022-08-21T11:42:56;5.93;;;0.57;;
56477;SDS011;42382;53.210;5.772;2022-08-21T11:45:47;5.47;;;0.73;;
56477;SDS011;42382;53.210;5.772;2022-08-21T11:48:27;6.90;;;0.73;;
56477;SDS011;42382;53.210;5.772;2022-08-21T11:51:00;4.45;;;0.43;;
56477;SDS011;42382;53.210;5.772;2022-08-21T11:53:33;7.28;;;1.20;;
56477;SDS011;42382;53.210;5.772;2022-08-21T11:59:11;4.10;;;0.80;;
56477;SDS011;42382;53.210;5.772;2022-08-21T12:01:50;3.20;;;0.60;;
56477;SDS011;42382;53.210;5.772;2022-08-21T12:04:26;4.32;;;0.60;;
56477;SDS011;42382;53.210;5.772;2022-08-21T12:06:55;3.58;;;0.70;;
56477;SDS011;42382;53.210;5.772;2022-08-21T12:09:29;2.75;;;0.50;;
56477;SDS011;42382;53.210;5.772;2022-08-21T12:12:04;7.80;;;0.57;;
56477;SDS011;42382;53.210;5.772;2022-08-21T12:14:44;2.67;;;0.50;;
56477;SDS011;42382;53.210;5.772;2022-08-21T12:17:18;3.47;;;0.75;;
56477;SDS011;42382;53.210;5.772;2022-08-21T12:20:33;3.40;;;1.10;;
56477;SDS011;42382;53.210;5.772;2022-08-21T12:22:47;3.05;;;0.57;;
56477;SDS011;42382;53.210;5.772;2022-08-21T12:25:18;5.20;;;0.95;;
56477;SDS011;42382;53.210;5.772;2022-08-21T12:28:03;3.35;;;0.60;;
56477;SDS011;42382;53.210;5.772;2022-08-21T12:30:35;7.53;;;0.73;;
56477;SDS011;42382;53.210;5.772;2022-08-21T12:33:04;8.20;;;0.60;;
56477;SDS011;42382;53.210;5.772;2022-08-21T12:35:51;4.45;;;0.60;;
56477;SDS011;42382;53.210;5.772;2022-08-21T12:38:31;5.05;;;0.73;;
56477;SDS011;42382;53.210;5.772;2022-08-21T12:41:06;2.33;;;0.40;;
56477;SDS011;42382;53.210;5.772;2022-08-21T12:43:38;3.70;;;0.55;;
56477;SDS011;42382;53.210;5.772;2022-08-21T12:46:13;3.70;;;0.82;;
56477;SDS011;42382;53.210;5.772;2022-08-21T12:48:47;5.20;;;0.73;;
56477;SDS011;42382;53.210;5.772;2022-08-21T12:51:23;4.10;;;0.82;;
56477;SDS011;42382;53.210;5.772;2022-08-21T12:53:58;3.78;;;0.57;;
56477;SDS011;42382;53.210;5.772;2022-08-21T12:56:26;3.35;;;0.68;;
56477;SDS011;42382;53.210;5.772;2022-08-21T12:59:00;2.97;;;0.50;;
56477;SDS011;42382;53.210;5.772;2022-08-21T13:01:31;6.97;;;0.57;;
56477;SDS011;42382;53.210;5.772;2022-08-21T13:04:12;4.05;;;0.50;;
56477;SDS011;42382;53.210;5.772;2022-08-21T13:06:46;4.30;;;0.70;;
56477;SDS011;42382;53.210;5.772;2022-08-21T13:09:16;3.08;;;0.40;;
56477;SDS011;42382;53.210;5.772;2022-08-21T13:11:45;4.93;;;0.77;;
56477;SDS011;42382;53.210;5.772;2022-08-21T13:14:18;4.75;;;0.47;;
56477;SDS011;42382;53.210;5.772;2022-08-21T13:16:59;4.38;;;0.45;;
56477;SDS011;42382;53.210;5.772;2022-08-21T13:19:28;5.18;;;0.98;;
56477;SDS011;42382;53.210;5.772;2022-08-21T13:21:54;3.30;;;0.45;;
56477;SDS011;42382;53.210;5.772;2022-08-21T13:24:25;9.52;;;0.77;;
56477;SDS011;42382;53.210;5.772;2022-08-21T13:26:52;5.30;;;1.10;;
56477;SDS011;42382;53.210;5.772;2022-08-21T13:29:19;5.00;;;0.65;;
56477;SDS011;42382;53.210;5.772;2022-08-21T13:31:48;4.13;;;0.50;;
56477;SDS011;42382;53.210;5.772;2022-08-21T13:34:17;5.22;;;0.75;;
56477;SDS011;42382;53.210;5.772;2022-08-21T13:36:44;3.35;;;0.52;;
56477;SDS011;42382;53.210;5.772;2022-08-21T13:39:12;5.82;;;0.88;;
56477;SDS011;42382;53.210;5.772;2022-08-21T13:41:44;2.80;;;0.50;;
56477;SDS011;42382;53.210;5.772;2022-08-21T13:44:31;4.60;;;0.50;;
56477;SDS011;42382;53.210;5.772;2022-08-21T13:47:07;7.10;;;0.60;;
56477;SDS011;42382;53.210;5.772;2022-08-21T13:49:37;3.67;;;0.70;;
56477;SDS011;42382;53.210;5.772;2022-08-21T13:52:12;4.88;;;0.82;;
56477;SDS011;42382;53.210;5.772;2022-08-21T13:57:33;4.03;;;0.57;;
56477;SDS011;42382;53.210;5.772;2022-08-21T14:00:13;4.53;;;0.70;;
56477;SDS011;42382;53.210;5.772;2022-08-21T14:02:47;5.43;;;1.00;;
56477;SDS011;42382;53.210;5.772;2022-08-21T14:05:20;4.32;;;0.75;;
56477;SDS011;42382;53.210;5.772;2022-08-21T14:08:03;6.30;;;0.80;;
56477;SDS011;42382;53.210;5.772;2022-08-21T14:12:57;5.35;;;0.75;;
56477;SDS011;42382;53.210;5.772;2022-08-21T14:15:28;3.88;;;0.65;;
56477;SDS011;42382;53.210;5.772;2022-08-21T14:18:06;5.85;;;1.05;;
56477;SDS011;42382;53.210;5.772;2022-08-21T14:20:35;6.00;;;0.93;;
56477;SDS011;42382;53.210;5.772;2022-08-21T14:23:01;6.88;;;1.02;;
56477;SDS011;42382;53.210;5.772;2022-08-21T14:28:02;6.20;;;0.60;;
56477;SDS011;42382;53.210;5.772;2022-08-21T14:30:45;6.45;;;0.50;;
56477;SDS011;42382;53.210;5.772;2022-08-21T14:33:12;6.13;;;0.55;;
56477;SDS011;42382;53.210;5.772;2022-08-21T14:35:49;3.58;;;0.50;;
56477;SDS011;42382;53.210;5.772;2022-08-21T14:38:16;5.07;;;0.65;;
56477;SDS011;42382;53.210;5.772;2022-08-21T14:40:43;4.45;;;0.70;;
56477;SDS011;42382;53.210;5.772;2022-08-21T14:43:20;4.55;;;0.60;;
56477;SDS011;42382;53.210;5.772;2022-08-21T14:45:46;3.83;;;0.80;;
56477;SDS011;42382;53.210;5.772;2022-08-21T14:48:12;3.97;;;0.30;;
56477;SDS011;42382;53.210;5.772;2022-08-21T14:50:38;3.85;;;0.77;;
56477;SDS011;42382;53.210;5.772;2022-08-21T14:53:05;3.97;;;0.63;;
56477;SDS011;42382;53.210;5.772;2022-08-21T14:55:31;6.75;;;1.02;;
56477;SDS011;42382;53.210;5.772;2022-08-21T14:58:15;9.32;;;0.70;;
56477;SDS011;42382;53.210;5.772;2022-08-21T15:00:41;2.88;;;0.57;;
56477;SDS011;42382;53.210;5.772;2022-08-21T15:03:06;4.63;;;0.82;;
56477;SDS011;42382;53.210;5.772;2022-08-21T15:05:32;4.35;;;0.57;;
56477;SDS011;42382;53.210;5.772;2022-08-21T15:07:57;6.15;;;0.77;;
56477;SDS011;42382;53.210;5.772;2022-08-21T15:10:23;7.35;;;0.70;;
56477;SDS011;42382;53.210;5.772;2022-08-21T15:12:49;6.25;;;0.82;;
56477;SDS011;42382;53.210;5.772;2022-08-21T15:15:14;6.45;;;0.93;;
56477;SDS011;42382;53.210;5.772;2022-08-21T15:17:40;7.30;;;0.80;;
56477;SDS011;42382;53.210;5.772;2022-08-21T15:20:05;3.47;;;0.82;;
56477;SDS011;42382;53.210;5.772;2022-08-21T15:22:33;6.60;;;0.75;;
56477;SDS011;42382;53.210;5.772;2022-08-21T15:24:59;5.25;;;1.13;;
56477;SDS011;42382;53.210;5.772;2022-08-21T15:27:26;5.15;;;0.80;;
56477;SDS011;42382;53.210;5.772;2022-08-21T15:29:52;4.47;;;0.57;;
56477;SDS011;42382;53.210;5.772;2022-08-21T15:32:26;6.63;;;0.68;;
56477;SDS011;42382;53.210;5.772;2022-08-21T15:34:54;4.47;;;0.50;;
56477;SDS011;42382;53.210;5.772;2022-08-21T15:37:20;2.95;;;0.77;;
56477;SDS011;42382;53.210;5.772;2022-08-21T15:39:48;9.88;;;0.80;;
56477;SDS011;42382;53.210;5.772;2022-08-21T15:42:17;3.33;;;0.60;;
56477;SDS011;42382;53.210;5.772;2022-08-21T15:44:44;4.43;;;0.95;;
56477;SDS011;42382;53.210;5.772;2022-08-21T15:47:13;5.47;;;1.35;;
56477;SDS011;42382;53.210;5.772;2022-08-21T15:49:41;4.70;;;1.00;;
56477;SDS011;42382;53.210;5.772;2022-08-21T15:52:10;6.28;;;1.45;;
56477;SDS011;42382;53.210;5.772;2022-08-21T15:54:36;5.80;;;0.90;;
56477;SDS011;42382;53.210;5.772;2022-08-21T15:57:02;4.32;;;0.65;;
56477;SDS011;42382;53.210;5.772;2022-08-21T15:59:28;5.80;;;1.13;;
56477;SDS011;42382;53.210;5.772;2022-08-21T16:01:56;5.05;;;0.88;;
56477;SDS011;42382;53.210;5.772;2022-08-21T16:04:24;6.10;;;0.90;;